sensor_id;sensor_type;location;lat;lon;timestamp;temperature;humidity
6518;DHT22;3292;48.944;9.240;2023-07-31T00:01:43;16.10;99.90
6518;DHT22;3292;48.944;9.240;2023-07-31T00:04:11;16.10;99.90
6518;DHT22;3292;48.944;9.240;2023-07-31T00:06:39;16.00;99.90
6518;DHT22;3292;48.944;9.240;2023-07-31T00:09:07;16.00;99.90
6518;DHT22;3292;48.944;9.240;2023-07-31T00:11:35;15.90;99.90
6518;DHT22;3292;48.944;9.240;2023-07-31T00:14:03;15.90;99.90
6518;DHT22;3292;48.944;9.240;2023-07-31T00:16:30;15.90;99.90
6518;DHT22;3292;48.944;9.240;2023-07-31T00:19:02;15.80;99.90
6518;DHT22;3292;48.944;9.240;2023-07-31T00:21:29;15.80;99.90
6518;DHT22;3292;48.944;9.240;2023-07-31T00:23:57;15.80;99.90
6518;DHT22;3292;48.944;9.240;2023-07-31T00:26:25;15.80;99.90
6518;DHT22;3292;48.944;9.240;2023-07-31T00:28:52;15.80;99.90
6518;DHT22;3292;48.944;9.240;2023-07-31T00:31:20;15.70;99.90
6518;DHT22;3292;48.944;9.240;2023-07-31T00:33:47;15.70;99.90
6518;DHT22;3292;48.944;9.240;2023-07-31T00:36:19;15.70;99.90
6518;DHT22;3292;48.944;9.240;2023-07-31T00:38:47;15.70;99.90
6518;DHT22;3292;48.944;9.240;2023-07-31T00:41:15;15.70;99.90
6518;DHT22;3292;48.944;9.240;2023-07-31T00:43:43;15.70;99.90
6518;DHT22;3292;48.944;9.240;2023-07-31T00:46:12;15.70;99.90
6518;DHT22;3292;48.944;9.240;2023-07-31T00:48:40;15.70;99.90
6518;DHT22;3292;48.944;9.240;2023-07-31T00:51:10;15.70;99.90
6518;DHT22;3292;48.944;9.240;2023-07-31T00:53:43;15.70;99.90
6518;DHT22;3292;48.944;9.240;2023-07-31T00:56:14;15.60;99.90
6518;DHT22;3292;48.944;9.240;2023-07-31T00:58:45;15.60;99.90
6518;DHT22;3292;48.944;9.240;2023-07-31T01:01:18;15.60;99.90
6518;DHT22;3292;48.944;9.240;2023-07-31T01:03:48;15.60;99.90
6518;DHT22;3292;48.944;9.240;2023-07-31T01:06:23;15.60;99.90
6518;DHT22;3292;48.944;9.240;2023-07-31T01:09:01;15.60;99.90
6518;DHT22;3292;48.944;9.240;2023-07-31T01:11:30;15.60;99.90
6518;DHT22;3292;48.944;9.240;2023-07-31T01:13:58;15.60;99.90
6518;DHT22;3292;48.944;9.240;2023-07-31T01:16:25;15.60;99.90
6518;DHT22;3292;48.944;9.240;2023-07-31T01:18:52;15.50;99.90
6518;DHT22;3292;48.944;9.240;2023-07-31T01:21:28;15.40;99.90
6518;DHT22;3292;48.944;9.240;2023-07-31T01:24:08;15.40;99.90
6518;DHT22;3292;48.944;9.240;2023-07-31T01:26:45;15.40;99.90
6518;DHT22;3292;48.944;9.240;2023-07-31T01:29:20;15.40;99.90
6518;DHT22;3292;48.944;9.240;2023-07-31T01:31:53;15.30;99.90
6518;DHT22;3292;48.944;9.240;2023-07-31T01:34:22;15.30;99.90
6518;DHT22;3292;48.944;9.240;2023-07-31T01:36:49;15.30;99.90
6518;DHT22;3292;48.944;9.240;2023-07-31T01:39:16;15.30;99.90
6518;DHT22;3292;48.944;9.240;2023-07-31T01:41:44;15.30;99.90
6518;DHT22;3292;48.944;9.240;2023-07-31T01:44:12;15.30;99.90
6518;DHT22;3292;48.944;9.240;2023-07-31T01:46:41;15.40;99.90
6518;DHT22;3292;48.944;9.240;2023-07-31T01:49:10;15.40;99.90
6518;DHT22;3292;48.944;9.240;2023-07-31T01:51:43;15.40;99.90
6518;DHT22;3292;48.944;9.240;2023-07-31T01:54:13;15.40;99.90
6518;DHT22;3292;48.944;9.240;2023-07-31T01:56:45;15.50;99.90
6518;DHT22;3292;48.944;9.240;2023-07-31T01:59:15;15.50;99.90
6518;DHT22;3292;48.944;9.240;2023-07-31T02:01:46;15.50;99.90
6518;DHT22;3292;48.944;9.240;2023-07-31T02:04:16;15.50;99.90
6518;DHT22;3292;48.944;9.240;2023-07-31T02:06:47;15.60;99.90
6518;DHT22;3292;48.944;9.240;2023-07-31T02:09:17;15.60;99.90
6518;DHT22;3292;48.944;9.240;2023-07-31T02:11:49;15.60;99.90
6518;DHT22;3292;48.944;9.240;2023-07-31T02:14:19;15.60;99.90
6518;DHT22;3292;48.944;9.240;2023-07-31T02:16:48;15.50;99.90
6518;DHT22;3292;48.944;9.240;2023-07-31T02:19:18;15.50;99.90
6518;DHT22;3292;48.944;9.240;2023-07-31T02:21:50;15.40;99.90
6518;DHT22;3292;48.944;9.240;2023-07-31T02:24:20;15.40;99.90
6518;DHT22;3292;48.944;9.240;2023-07-31T02:26:51;15.40;99.90
6518;DHT22;3292;48.944;9.240;2023-07-31T02:29:19;15.40;99.90
6518;DHT22;3292;48.944;9.240;2023-07-31T02:31:49;15.30;99.90
6518;DHT22;3292;48.944;9.240;2023-07-31T02:34:20;15.30;99.90
6518;DHT22;3292;48.944;9.240;2023-07-31T02:36:49;15.30;99.90
6518;DHT22;3292;48.944;9.240;2023-07-31T02:39:19;15.30;99.90
6518;DHT22;3292;48.944;9.240;2023-07-31T02:41:49;15.30;99.90
6518;DHT22;3292;48.944;9.240;2023-07-31T02:44:18;15.40;99.90
6518;DHT22;3292;48.944;9.240;2023-07-31T02:46:46;15.40;99.90
6518;DHT22;3292;48.944;9.240;2023-07-31T02:49:14;15.40;99.90
6518;DHT22;3292;48.944;9.240;2023-07-31T02:51:41;15.50;99.90
6518;DHT22;3292;48.944;9.240;2023-07-31T02:54:09;15.50;99.90
6518;DHT22;3292;48.944;9.240;2023-07-31T02:56:37;15.50;99.90
6518;DHT22;3292;48.944;9.240;2023-07-31T02:59:08;15.50;99.90
6518;DHT22;3292;48.944;9.240;2023-07-31T03:01:34;15.50;99.90
6518;DHT22;3292;48.944;9.240;2023-07-31T03:04:01;15.50;99.90
6518;DHT22;3292;48.944;9.240;2023-07-31T03:06:28;15.50;99.90
6518;DHT22;3292;48.944;9.240;2023-07-31T03:08:55;15.50;99.90
6518;DHT22;3292;48.944;9.240;2023-07-31T03:11:22;15.50;99.90
6518;DHT22;3292;48.944;9.240;2023-07-31T03:13:48;15.50;99.90
6518;DHT22;3292;48.944;9.240;2023-07-31T03:16:17;15.50;99.90
6518;DHT22;3292;48.944;9.240;2023-07-31T03:18:43;15.40;99.90
6518;DHT22;3292;48.944;9.240;2023-07-31T03:21:10;15.30;99.90
6518;DHT22;3292;48.944;9.240;2023-07-31T03:23:37;15.30;99.90
6518;DHT22;3292;48.944;9.240;2023-07-31T03:26:07;15.30;99.90
6518;DHT22;3292;48.944;9.240;2023-07-31T03:28:34;15.30;99.90
6518;DHT22;3292;48.944;9.240;2023-07-31T03:31:01;15.30;99.90
6518;DHT22;3292;48.944;9.240;2023-07-31T03:33:29;15.30;99.90
6518;DHT22;3292;48.944;9.240;2023-07-31T03:35:57;15.40;99.90
6518;DHT22;3292;48.944;9.240;2023-07-31T03:38:26;15.30;99.90
6518;DHT22;3292;48.944;9.240;2023-07-31T03:40:56;15.30;99.90
6518;DHT22;3292;48.944;9.240;2023-07-31T03:43:26;15.30;99.90
6518;DHT22;3292;48.944;9.240;2023-07-31T03:45:55;15.30;99.90
6518;DHT22;3292;48.944;9.240;2023-07-31T03:48:25;15.30;99.90
6518;DHT22;3292;48.944;9.240;2023-07-31T03:50:55;15.20;99.90
6518;DHT22;3292;48.944;9.240;2023-07-31T03:53:24;15.20;99.90
6518;DHT22;3292;48.944;9.240;2023-07-31T03:55:53;15.20;99.90
6518;DHT22;3292;48.944;9.240;2023-07-31T03:58:21;15.20;99.90
6518;DHT22;3292;48.944;9.240;2023-07-31T04:00:51;15.20;99.90
6518;DHT22;3292;48.944;9.240;2023-07-31T04:03:21;15.20;99.90
6518;DHT22;3292;48.944;9.240;2023-07-31T04:05:51;15.20;99.90
6518;DHT22;3292;48.944;9.240;2023-07-31T04:08:21;15.20;99.90
6518;DHT22;3292;48.944;9.240;2023-07-31T04:10:51;15.20;99.90
6518;DHT22;3292;48.944;9.240;2023-07-31T04:13:22;15.10;99.90
6518;DHT22;3292;48.944;9.240;2023-07-31T04:15:51;15.10;99.90
6518;DHT22;3292;48.944;9.240;2023-07-31T04:18:21;15.10;99.90
6518;DHT22;3292;48.944;9.240;2023-07-31T04:20:52;15.10;99.90
6518;DHT22;3292;48.944;9.240;2023-07-31T04:23:27;15.10;99.90
6518;DHT22;3292;48.944;9.240;2023-07-31T04:25:56;15.10;99.90
6518;DHT22;3292;48.944;9.240;2023-07-31T04:28:27;15.10;99.90
6518;DHT22;3292;48.944;9.240;2023-07-31T04:31:00;15.10;99.90
6518;DHT22;3292;48.944;9.240;2023-07-31T04:33:29;15.10;99.90
6518;DHT22;3292;48.944;9.240;2023-07-31T04:36:05;15.10;99.90
6518;DHT22;3292;48.944;9.240;2023-07-31T04:38:39;15.20;99.90
6518;DHT22;3292;48.944;9.240;2023-07-31T04:41:08;15.20;99.90
6518;DHT22;3292;48.944;9.240;2023-07-31T04:43:39;15.20;99.90
6518;DHT22;3292;48.944;9.240;2023-07-31T04:46:09;15.20;99.90
6518;DHT22;3292;48.944;9.240;2023-07-31T04:48:39;15.30;99.90
6518;DHT22;3292;48.944;9.240;2023-07-31T04:51:07;15.30;99.90
6518;DHT22;3292;48.944;9.240;2023-07-31T04:53:38;15.40;99.90
6518;DHT22;3292;48.944;9.240;2023-07-31T04:56:07;15.50;99.90
6518;DHT22;3292;48.944;9.240;2023-07-31T04:58:37;15.50;99.90
6518;DHT22;3292;48.944;9.240;2023-07-31T05:01:06;15.60;99.90
6518;DHT22;3292;48.944;9.240;2023-07-31T05:03:36;15.60;99.90
6518;DHT22;3292;48.944;9.240;2023-07-31T05:06:04;15.70;99.90
6518;DHT22;3292;48.944;9.240;2023-07-31T05:08:34;15.70;99.90
6518;DHT22;3292;48.944;9.240;2023-07-31T05:11:06;15.80;99.90
6518;DHT22;3292;48.944;9.240;2023-07-31T05:13:35;15.90;99.90
6518;DHT22;3292;48.944;9.240;2023-07-31T05:16:04;15.90;99.90
6518;DHT22;3292;48.944;9.240;2023-07-31T05:18:33;15.90;99.90
6518;DHT22;3292;48.944;9.240;2023-07-31T05:21:03;15.90;99.90
6518;DHT22;3292;48.944;9.240;2023-07-31T05:23:33;16.00;99.90
6518;DHT22;3292;48.944;9.240;2023-07-31T05:26:08;16.10;99.90
6518;DHT22;3292;48.944;9.240;2023-07-31T05:28:38;16.10;99.90
6518;DHT22;3292;48.944;9.240;2023-07-31T05:31:08;16.20;99.90
6518;DHT22;3292;48.944;9.240;2023-07-31T05:33:38;16.30;99.90
6518;DHT22;3292;48.944;9.240;2023-07-31T05:36:07;16.50;99.90
6518;DHT22;3292;48.944;9.240;2023-07-31T05:38:35;16.60;99.90
6518;DHT22;3292;48.944;9.240;2023-07-31T05:41:07;16.70;99.90
6518;DHT22;3292;48.944;9.240;2023-07-31T05:43:36;16.80;99.90
6518;DHT22;3292;48.944;9.240;2023-07-31T05:46:04;17.00;99.90
6518;DHT22;3292;48.944;9.240;2023-07-31T05:48:33;17.20;99.90
6518;DHT22;3292;48.944;9.240;2023-07-31T05:51:04;17.40;99.90
6518;DHT22;3292;48.944;9.240;2023-07-31T05:53:32;17.60;99.90
6518;DHT22;3292;48.944;9.240;2023-07-31T05:56:08;17.70;99.90
6518;DHT22;3292;48.944;9.240;2023-07-31T05:58:37;17.80;99.90
6518;DHT22;3292;48.944;9.240;2023-07-31T06:01:06;17.80;99.90
6518;DHT22;3292;48.944;9.240;2023-07-31T06:03:35;17.90;99.90
6518;DHT22;3292;48.944;9.240;2023-07-31T06:06:06;18.10;99.90
6518;DHT22;3292;48.944;9.240;2023-07-31T06:08:35;18.30;99.90
6518;DHT22;3292;48.944;9.240;2023-07-31T06:11:03;18.60;99.90
6518;DHT22;3292;48.944;9.240;2023-07-31T06:13:34;19.60;99.90
6518;DHT22;3292;48.944;9.240;2023-07-31T06:16:03;20.50;99.90
6518;DHT22;3292;48.944;9.240;2023-07-31T06:18:32;20.90;99.90
6518;DHT22;3292;48.944;9.240;2023-07-31T06:21:01;21.20;99.90
6518;DHT22;3292;48.944;9.240;2023-07-31T06:23:30;21.30;99.90
6518;DHT22;3292;48.944;9.240;2023-07-31T06:25:59;21.60;99.90
6518;DHT22;3292;48.944;9.240;2023-07-31T06:28:29;21.80;99.90
6518;DHT22;3292;48.944;9.240;2023-07-31T06:31:00;22.00;99.90
6518;DHT22;3292;48.944;9.240;2023-07-31T06:33:31;22.20;99.90
6518;DHT22;3292;48.944;9.240;2023-07-31T06:35:59;22.20;99.90
6518;DHT22;3292;48.944;9.240;2023-07-31T06:38:26;22.20;99.90
6518;DHT22;3292;48.944;9.240;2023-07-31T06:40:53;22.30;99.90
6518;DHT22;3292;48.944;9.240;2023-07-31T06:43:20;22.60;99.90
6518;DHT22;3292;48.944;9.240;2023-07-31T06:45:47;23.00;99.90
6518;DHT22;3292;48.944;9.240;2023-07-31T06:48:18;22.90;99.90
6518;DHT22;3292;48.944;9.240;2023-07-31T06:50:44;22.60;99.90
6518;DHT22;3292;48.944;9.240;2023-07-31T06:53:11;22.30;99.90
6518;DHT22;3292;48.944;9.240;2023-07-31T06:55:38;22.00;99.90
6518;DHT22;3292;48.944;9.240;2023-07-31T06:58:05;22.00;99.90
6518;DHT22;3292;48.944;9.240;2023-07-31T07:00:33;22.00;99.90
6518;DHT22;3292;48.944;9.240;2023-07-31T07:03:00;22.40;99.90
6518;DHT22;3292;48.944;9.240;2023-07-31T07:05:29;22.70;99.90
6518;DHT22;3292;48.944;9.240;2023-07-31T07:07:56;22.70;99.90
6518;DHT22;3292;48.944;9.240;2023-07-31T07:10:23;22.50;99.90
6518;DHT22;3292;48.944;9.240;2023-07-31T07:12:50;22.20;99.90
6518;DHT22;3292;48.944;9.240;2023-07-31T07:15:17;22.00;99.90
6518;DHT22;3292;48.944;9.240;2023-07-31T07:17:44;21.70;99.90
6518;DHT22;3292;48.944;9.240;2023-07-31T07:20:11;21.50;99.90
6518;DHT22;3292;48.944;9.240;2023-07-31T07:22:39;21.40;99.90
6518;DHT22;3292;48.944;9.240;2023-07-31T07:25:09;21.50;99.90
6518;DHT22;3292;48.944;9.240;2023-07-31T07:27:36;21.50;99.90
6518;DHT22;3292;48.944;9.240;2023-07-31T07:30:03;21.50;99.90
6518;DHT22;3292;48.944;9.240;2023-07-31T07:32:30;21.40;99.90
6518;DHT22;3292;48.944;9.240;2023-07-31T07:34:57;21.20;99.90
6518;DHT22;3292;48.944;9.240;2023-07-31T07:37:24;20.80;99.90
6518;DHT22;3292;48.944;9.240;2023-07-31T07:39:52;20.60;99.90
6518;DHT22;3292;48.944;9.240;2023-07-31T07:42:19;20.70;99.90
6518;DHT22;3292;48.944;9.240;2023-07-31T07:44:45;20.70;99.90
6518;DHT22;3292;48.944;9.240;2023-07-31T07:47:13;20.90;99.90
6518;DHT22;3292;48.944;9.240;2023-07-31T07:49:39;21.10;99.90
6518;DHT22;3292;48.944;9.240;2023-07-31T07:52:06;21.30;99.90
6518;DHT22;3292;48.944;9.240;2023-07-31T07:54:33;21.50;99.90
6518;DHT22;3292;48.944;9.240;2023-07-31T07:57:01;21.40;99.90
6518;DHT22;3292;48.944;9.240;2023-07-31T07:59:28;21.40;99.90
6518;DHT22;3292;48.944;9.240;2023-07-31T08:01:55;21.30;99.90
6518;DHT22;3292;48.944;9.240;2023-07-31T08:04:23;21.30;99.90
6518;DHT22;3292;48.944;9.240;2023-07-31T08:06:49;21.40;99.90
6518;DHT22;3292;48.944;9.240;2023-07-31T08:09:16;21.40;99.90
6518;DHT22;3292;48.944;9.240;2023-07-31T08:11:43;21.30;99.90
6518;DHT22;3292;48.944;9.240;2023-07-31T08:14:11;21.40;99.90
6518;DHT22;3292;48.944;9.240;2023-07-31T08:16:38;21.50;99.90
6518;DHT22;3292;48.944;9.240;2023-07-31T08:19:05;21.60;99.90
6518;DHT22;3292;48.944;9.240;2023-07-31T08:21:32;21.60;99.90
6518;DHT22;3292;48.944;9.240;2023-07-31T08:23:59;21.70;99.90
6518;DHT22;3292;48.944;9.240;2023-07-31T08:26:26;21.90;99.90
6518;DHT22;3292;48.944;9.240;2023-07-31T08:28:52;22.20;99.90
6518;DHT22;3292;48.944;9.240;2023-07-31T08:31:21;22.40;99.90
6518;DHT22;3292;48.944;9.240;2023-07-31T08:33:47;22.60;99.90
6518;DHT22;3292;48.944;9.240;2023-07-31T08:36:14;22.70;99.90
6518;DHT22;3292;48.944;9.240;2023-07-31T08:38:41;22.90;99.90
6518;DHT22;3292;48.944;9.240;2023-07-31T08:41:08;23.00;99.90
6518;DHT22;3292;48.944;9.240;2023-07-31T08:43:36;22.90;99.90
6518;DHT22;3292;48.944;9.240;2023-07-31T08:46:05;22.90;99.90
6518;DHT22;3292;48.944;9.240;2023-07-31T08:48:34;22.90;99.90
6518;DHT22;3292;48.944;9.240;2023-07-31T08:51:02;22.60;99.90
6518;DHT22;3292;48.944;9.240;2023-07-31T08:53:29;22.40;99.90
6518;DHT22;3292;48.944;9.240;2023-07-31T08:55:56;22.10;99.90
6518;DHT22;3292;48.944;9.240;2023-07-31T08:58:25;22.20;99.90
6518;DHT22;3292;48.944;9.240;2023-07-31T09:00:54;22.30;99.90
6518;DHT22;3292;48.944;9.240;2023-07-31T09:03:24;22.50;99.90
6518;DHT22;3292;48.944;9.240;2023-07-31T09:05:53;22.40;99.90
6518;DHT22;3292;48.944;9.240;2023-07-31T09:08:22;22.30;99.90
6518;DHT22;3292;48.944;9.240;2023-07-31T09:10:49;22.30;99.90
6518;DHT22;3292;48.944;9.240;2023-07-31T09:13:16;22.30;99.90
6518;DHT22;3292;48.944;9.240;2023-07-31T09:15:45;22.30;99.90
6518;DHT22;3292;48.944;9.240;2023-07-31T09:18:12;22.20;99.90
6518;DHT22;3292;48.944;9.240;2023-07-31T09:20:39;22.20;99.90
6518;DHT22;3292;48.944;9.240;2023-07-31T09:23:09;22.10;99.90
6518;DHT22;3292;48.944;9.240;2023-07-31T09:25:37;22.00;99.90
6518;DHT22;3292;48.944;9.240;2023-07-31T09:28:05;21.90;99.90
6518;DHT22;3292;48.944;9.240;2023-07-31T09:30:45;21.90;99.90
6518;DHT22;3292;48.944;9.240;2023-07-31T09:33:12;21.80;99.90
6518;DHT22;3292;48.944;9.240;2023-07-31T09:35:39;21.80;99.90
6518;DHT22;3292;48.944;9.240;2023-07-31T09:38:09;21.80;99.90
6518;DHT22;3292;48.944;9.240;2023-07-31T09:40:38;21.60;99.90
6518;DHT22;3292;48.944;9.240;2023-07-31T09:43:06;21.50;99.90
6518;DHT22;3292;48.944;9.240;2023-07-31T09:45:34;21.50;99.90
6518;DHT22;3292;48.944;9.240;2023-07-31T09:48:02;21.60;99.90
6518;DHT22;3292;48.944;9.240;2023-07-31T09:50:29;21.60;99.90
6518;DHT22;3292;48.944;9.240;2023-07-31T09:52:56;21.60;99.90
6518;DHT22;3292;48.944;9.240;2023-07-31T09:55:24;21.70;99.90
6518;DHT22;3292;48.944;9.240;2023-07-31T09:57:52;21.70;99.90
6518;DHT22;3292;48.944;9.240;2023-07-31T10:00:21;21.80;99.90
6518;DHT22;3292;48.944;9.240;2023-07-31T10:02:51;21.60;99.90
6518;DHT22;3292;48.944;9.240;2023-07-31T10:05:18;21.60;99.90
6518;DHT22;3292;48.944;9.240;2023-07-31T10:07:51;21.70;99.90
6518;DHT22;3292;48.944;9.240;2023-07-31T10:10:20;21.90;99.90
6518;DHT22;3292;48.944;9.240;2023-07-31T10:12:49;21.90;99.90
6518;DHT22;3292;48.944;9.240;2023-07-31T10:15:16;21.90;99.90
6518;DHT22;3292;48.944;9.240;2023-07-31T10:17:44;22.00;99.90
6518;DHT22;3292;48.944;9.240;2023-07-31T10:20:11;22.00;99.90
6518;DHT22;3292;48.944;9.240;2023-07-31T10:22:38;22.30;99.90
6518;DHT22;3292;48.944;9.240;2023-07-31T10:25:08;22.50;99.90
6518;DHT22;3292;48.944;9.240;2023-07-31T10:27:35;22.60;99.90
6518;DHT22;3292;48.944;9.240;2023-07-31T10:30:08;22.70;99.90
6518;DHT22;3292;48.944;9.240;2023-07-31T10:32:37;22.80;99.90
6518;DHT22;3292;48.944;9.240;2023-07-31T10:35:06;22.80;99.90
6518;DHT22;3292;48.944;9.240;2023-07-31T10:37:36;22.70;99.90
6518;DHT22;3292;48.944;9.240;2023-07-31T10:40:06;22.80;99.90
6518;DHT22;3292;48.944;9.240;2023-07-31T10:42:36;22.80;99.90
6518;DHT22;3292;48.944;9.240;2023-07-31T10:45:07;22.80;99.90
6518;DHT22;3292;48.944;9.240;2023-07-31T10:47:38;22.90;99.90
6518;DHT22;3292;48.944;9.240;2023-07-31T10:50:18;22.80;99.90
6518;DHT22;3292;48.944;9.240;2023-07-31T10:52:49;22.60;99.90
6518;DHT22;3292;48.944;9.240;2023-07-31T10:55:27;22.50;99.90
6518;DHT22;3292;48.944;9.240;2023-07-31T10:57:55;22.50;99.90
6518;DHT22;3292;48.944;9.240;2023-07-31T11:00:26;22.50;99.90
6518;DHT22;3292;48.944;9.240;2023-07-31T11:02:57;22.60;99.90
6518;DHT22;3292;48.944;9.240;2023-07-31T11:05:43;22.70;99.90
6518;DHT22;3292;48.944;9.240;2023-07-31T11:08:14;22.90;99.90
6518;DHT22;3292;48.944;9.240;2023-07-31T11:10:42;22.90;99.90
6518;DHT22;3292;48.944;9.240;2023-07-31T11:13:09;22.90;99.90
6518;DHT22;3292;48.944;9.240;2023-07-31T11:15:37;22.80;99.90
6518;DHT22;3292;48.944;9.240;2023-07-31T11:18:04;22.90;99.90
6518;DHT22;3292;48.944;9.240;2023-07-31T11:20:35;23.00;99.90
6518;DHT22;3292;48.944;9.240;2023-07-31T11:23:03;22.90;99.90
6518;DHT22;3292;48.944;9.240;2023-07-31T11:25:30;22.90;99.90
6518;DHT22;3292;48.944;9.240;2023-07-31T11:27:58;22.70;99.90
6518;DHT22;3292;48.944;9.240;2023-07-31T11:30:28;22.60;99.90
6518;DHT22;3292;48.944;9.240;2023-07-31T11:32:56;22.70;99.90
6518;DHT22;3292;48.944;9.240;2023-07-31T11:35:23;22.70;99.90
6518;DHT22;3292;48.944;9.240;2023-07-31T11:37:50;23.10;99.90
6518;DHT22;3292;48.944;9.240;2023-07-31T11:40:18;23.40;99.90
6518;DHT22;3292;48.944;9.240;2023-07-31T11:42:45;23.60;99.90
6518;DHT22;3292;48.944;9.240;2023-07-31T11:45:12;23.70;99.90
6518;DHT22;3292;48.944;9.240;2023-07-31T11:47:39;23.60;99.90
6518;DHT22;3292;48.944;9.240;2023-07-31T11:50:11;23.50;99.90
6518;DHT22;3292;48.944;9.240;2023-07-31T11:52:41;23.50;99.90
6518;DHT22;3292;48.944;9.240;2023-07-31T11:55:08;23.60;99.90
6518;DHT22;3292;48.944;9.240;2023-07-31T11:57:37;23.60;99.90
6518;DHT22;3292;48.944;9.240;2023-07-31T12:00:07;23.60;99.90
6518;DHT22;3292;48.944;9.240;2023-07-31T12:02:35;23.60;99.90
6518;DHT22;3292;48.944;9.240;2023-07-31T12:05:02;23.40;99.90
6518;DHT22;3292;48.944;9.240;2023-07-31T12:07:47;23.30;99.90
6518;DHT22;3292;48.944;9.240;2023-07-31T12:10:28;23.30;99.90
6518;DHT22;3292;48.944;9.240;2023-07-31T12:12:56;23.50;99.90
6518;DHT22;3292;48.944;9.240;2023-07-31T12:15:29;23.50;99.90
6518;DHT22;3292;48.944;9.240;2023-07-31T12:17:57;23.60;99.90
6518;DHT22;3292;48.944;9.240;2023-07-31T12:20:24;23.50;99.90
6518;DHT22;3292;48.944;9.240;2023-07-31T12:22:52;23.50;99.90
6518;DHT22;3292;48.944;9.240;2023-07-31T12:25:22;23.40;99.90
6518;DHT22;3292;48.944;9.240;2023-07-31T12:27:50;23.40;99.90
6518;DHT22;3292;48.944;9.240;2023-07-31T12:30:28;23.40;99.90
6518;DHT22;3292;48.944;9.240;2023-07-31T12:32:54;23.50;99.90
6518;DHT22;3292;48.944;9.240;2023-07-31T12:35:21;23.60;99.90
6518;DHT22;3292;48.944;9.240;2023-07-31T12:37:48;23.80;99.90
6518;DHT22;3292;48.944;9.240;2023-07-31T12:40:16;24.00;99.90
6518;DHT22;3292;48.944;9.240;2023-07-31T12:42:43;24.20;99.90
6518;DHT22;3292;48.944;9.240;2023-07-31T12:45:10;24.30;99.90
6518;DHT22;3292;48.944;9.240;2023-07-31T12:47:37;24.40;99.90
6518;DHT22;3292;48.944;9.240;2023-07-31T12:50:05;24.30;99.90
6518;DHT22;3292;48.944;9.240;2023-07-31T12:52:32;24.40;99.90
6518;DHT22;3292;48.944;9.240;2023-07-31T12:54:59;24.30;99.90
6518;DHT22;3292;48.944;9.240;2023-07-31T12:57:27;24.40;99.90
6518;DHT22;3292;48.944;9.240;2023-07-31T12:59:54;24.50;99.90
6518;DHT22;3292;48.944;9.240;2023-07-31T13:02:20;24.30;99.90
6518;DHT22;3292;48.944;9.240;2023-07-31T13:04:49;24.10;99.90
6518;DHT22;3292;48.944;9.240;2023-07-31T13:07:16;24.20;99.90
6518;DHT22;3292;48.944;9.240;2023-07-31T13:09:43;24.20;99.90
6518;DHT22;3292;48.944;9.240;2023-07-31T13:12:10;24.20;99.90
6518;DHT22;3292;48.944;9.240;2023-07-31T13:14:38;24.20;99.90
6518;DHT22;3292;48.944;9.240;2023-07-31T13:17:05;24.00;99.90
6518;DHT22;3292;48.944;9.240;2023-07-31T13:19:32;23.90;99.90
6518;DHT22;3292;48.944;9.240;2023-07-31T13:21:58;23.80;99.90
6518;DHT22;3292;48.944;9.240;2023-07-31T13:24:25;23.70;99.90
6518;DHT22;3292;48.944;9.240;2023-07-31T13:26:52;23.70;99.90
6518;DHT22;3292;48.944;9.240;2023-07-31T13:29:19;23.60;99.90
6518;DHT22;3292;48.944;9.240;2023-07-31T13:31:48;23.60;99.90
6518;DHT22;3292;48.944;9.240;2023-07-31T13:34:15;23.70;99.90
6518;DHT22;3292;48.944;9.240;2023-07-31T13:36:42;23.70;99.90
6518;DHT22;3292;48.944;9.240;2023-07-31T13:39:09;23.60;99.90
6518;DHT22;3292;48.944;9.240;2023-07-31T13:41:36;23.70;99.90
6518;DHT22;3292;48.944;9.240;2023-07-31T13:44:03;23.80;99.90
6518;DHT22;3292;48.944;9.240;2023-07-31T13:46:30;23.80;99.90
6518;DHT22;3292;48.944;9.240;2023-07-31T13:48:59;23.80;99.90
6518;DHT22;3292;48.944;9.240;2023-07-31T13:51:26;23.70;99.90
6518;DHT22;3292;48.944;9.240;2023-07-31T13:53:54;23.70;99.90
6518;DHT22;3292;48.944;9.240;2023-07-31T13:56:21;23.70;99.90
6518;DHT22;3292;48.944;9.240;2023-07-31T13:58:48;23.70;99.90
6518;DHT22;3292;48.944;9.240;2023-07-31T14:01:14;23.60;99.90
6518;DHT22;3292;48.944;9.240;2023-07-31T14:03:41;23.60;99.90
6518;DHT22;3292;48.944;9.240;2023-07-31T14:06:09;23.60;99.90
6518;DHT22;3292;48.944;9.240;2023-07-31T14:08:36;23.60;99.90
6518;DHT22;3292;48.944;9.240;2023-07-31T14:11:03;23.70;99.90
6518;DHT22;3292;48.944;9.240;2023-07-31T14:13:30;23.70;99.90
6518;DHT22;3292;48.944;9.240;2023-07-31T14:15:57;23.50;99.90
6518;DHT22;3292;48.944;9.240;2023-07-31T14:18:23;23.40;99.90
6518;DHT22;3292;48.944;9.240;2023-07-31T14:20:51;23.40;99.90
6518;DHT22;3292;48.944;9.240;2023-07-31T14:23:19;23.40;99.90
6518;DHT22;3292;48.944;9.240;2023-07-31T14:25:46;23.40;99.90
6518;DHT22;3292;48.944;9.240;2023-07-31T14:28:13;23.60;99.90
6518;DHT22;3292;48.944;9.240;2023-07-31T14:30:40;23.60;99.90
6518;DHT22;3292;48.944;9.240;2023-07-31T14:33:06;23.70;99.90
6518;DHT22;3292;48.944;9.240;2023-07-31T14:35:34;23.80;99.90
6518;DHT22;3292;48.944;9.240;2023-07-31T14:38:01;23.90;99.90
6518;DHT22;3292;48.944;9.240;2023-07-31T14:40:29;23.90;99.90
6518;DHT22;3292;48.944;9.240;2023-07-31T14:42:56;23.90;99.90
6518;DHT22;3292;48.944;9.240;2023-07-31T14:45:22;23.90;99.90
6518;DHT22;3292;48.944;9.240;2023-07-31T14:47:49;23.90;99.90
6518;DHT22;3292;48.944;9.240;2023-07-31T14:50:16;24.00;99.90
6518;DHT22;3292;48.944;9.240;2023-07-31T14:52:43;24.00;99.90
6518;DHT22;3292;48.944;9.240;2023-07-31T14:55:10;24.10;99.90
6518;DHT22;3292;48.944;9.240;2023-07-31T14:57:38;24.10;99.90
6518;DHT22;3292;48.944;9.240;2023-07-31T15:00:06;24.10;99.90
6518;DHT22;3292;48.944;9.240;2023-07-31T15:02:34;24.00;99.90
6518;DHT22;3292;48.944;9.240;2023-07-31T15:05:01;24.00;99.90
6518;DHT22;3292;48.944;9.240;2023-07-31T15:07:28;23.90;99.90
6518;DHT22;3292;48.944;9.240;2023-07-31T15:09:55;23.80;99.90
6518;DHT22;3292;48.944;9.240;2023-07-31T15:12:22;23.70;99.90
6518;DHT22;3292;48.944;9.240;2023-07-31T15:14:50;23.60;99.90
6518;DHT22;3292;48.944;9.240;2023-07-31T15:17:17;23.50;99.90
6518;DHT22;3292;48.944;9.240;2023-07-31T15:19:44;23.50;99.90
6518;DHT22;3292;48.944;9.240;2023-07-31T15:22:11;23.40;99.90
6518;DHT22;3292;48.944;9.240;2023-07-31T15:24:38;23.50;99.90
6518;DHT22;3292;48.944;9.240;2023-07-31T15:27:05;23.50;99.90
6518;DHT22;3292;48.944;9.240;2023-07-31T15:29:34;23.60;99.90
6518;DHT22;3292;48.944;9.240;2023-07-31T15:32:04;23.70;99.90
6518;DHT22;3292;48.944;9.240;2023-07-31T15:34:31;23.80;99.90
6518;DHT22;3292;48.944;9.240;2023-07-31T15:36:58;24.00;99.90
6518;DHT22;3292;48.944;9.240;2023-07-31T15:39:25;24.10;99.90
6518;DHT22;3292;48.944;9.240;2023-07-31T15:41:52;24.10;99.90
6518;DHT22;3292;48.944;9.240;2023-07-31T15:44:19;24.10;99.90
6518;DHT22;3292;48.944;9.240;2023-07-31T15:46:47;24.10;99.90
6518;DHT22;3292;48.944;9.240;2023-07-31T15:49:15;24.20;99.90
6518;DHT22;3292;48.944;9.240;2023-07-31T15:51:42;24.10;99.90
6518;DHT22;3292;48.944;9.240;2023-07-31T15:54:08;24.00;99.90
6518;DHT22;3292;48.944;9.240;2023-07-31T15:56:35;24.00;99.90
6518;DHT22;3292;48.944;9.240;2023-07-31T15:59:02;24.00;99.90
6518;DHT22;3292;48.944;9.240;2023-07-31T16:01:30;23.80;99.90
6518;DHT22;3292;48.944;9.240;2023-07-31T16:03:56;23.80;99.90
6518;DHT22;3292;48.944;9.240;2023-07-31T16:06:24;23.80;99.90
6518;DHT22;3292;48.944;9.240;2023-07-31T16:08:51;23.80;99.90
6518;DHT22;3292;48.944;9.240;2023-07-31T16:11:20;23.80;99.90